PWSweather.com
Personal Weather Stations
Station Observations
GOLDTH1
Castor, Goldthwaite, TX 76844

CastorGoldthwaite, TX 76844

Lat: 31.3707, Lon: -98.5076

Elevation: 1456

Station Type: La Crosse ws-2812

High Low Average
Temperature 78.3°F25.7°C 69.7°F20.9°C 73.2°F22.9°C
Dew Point 68.2°F20.1°C 64.5°F18.1°C 66.4°F19.1°C
Winds 20.0 mph 32.2 kmh 3.4 mph 5.5 kmh 11.0 mph SE17.7 kmh SE
Wind Gusts 26.2 mph42.2 kmh 8.9 mph14.3 kmh 18.0 mph29.0 kmh
Humidity 87% 67% 79%
Pressure 29.84 in1010.5 mb 29.68 in1005.1 mb -
Precipitation 0.00 in0.0 mm - -
Hour Temp Dew Point Humidity Winds Wind Gusts Pressure Precip Precip Rate Daily Precip Total
12:02 AM 71.5°F21.9°C 66.0°F18.9°C 83% 15.9 mph SE25.6 kmh SE 19.2 mph30.9 kmh 29.84 in1010.5 mb 0.00 in0.0 mm 0.00 in/hr0.0 mm/hr 0.00 in0.0 mm
12:07 AM 71.3°F21.8°C 65.8°F18.8°C 83% 10.8 mph SE17.4 kmh SE 20.1 mph32.3 kmh 29.84 in1010.5 mb 0.00 in0.0 mm 0.00 in/hr0.0 mm/hr 0.00 in0.0 mm
12:12 AM 71.3°F21.8°C 65.8°F18.8°C 83% 12.7 mph SE20.4 kmh SE 20.1 mph32.3 kmh 29.84 in1010.5 mb 0.00 in0.0 mm 0.00 in/hr0.0 mm/hr 0.00 in0.0 mm
12:17 AM 71.1°F21.7°C 66.0°F18.9°C 84% 10.8 mph SE17.4 kmh SE 19.9 mph32.0 kmh 29.84 in1010.5 mb 0.00 in0.0 mm 0.00 in/hr0.0 mm/hr 0.00 in0.0 mm
12:22 AM 71.1°F21.7°C 66.0°F18.9°C 84% 13.5 mph SE21.7 kmh SE 19.9 mph32.0 kmh 29.84 in1010.5 mb 0.00 in0.0 mm 0.00 in/hr0.0 mm/hr 0.00 in0.0 mm
12:27 AM 70.9°F21.6°C 65.8°F18.8°C 84% 10.7 mph SE17.2 kmh SE 18.1 mph29.1 kmh 29.84 in1010.5 mb 0.00 in0.0 mm 0.00 in/hr0.0 mm/hr 0.00 in0.0 mm
12:32 AM 70.9°F21.6°C 65.8°F18.8°C 84% 11.3 mph SE18.2 kmh SE 16.3 mph26.2 kmh 29.84 in1010.5 mb 0.00 in0.0 mm 0.00 in/hr0.0 mm/hr 0.00 in0.0 mm
12:37 AM 70.9°F21.6°C 66.2°F19.0°C 85% 12.4 mph SE20.0 kmh SE 17.7 mph28.5 kmh 29.83 in1010.2 mb 0.00 in0.0 mm 0.00 in/hr0.0 mm/hr 0.00 in0.0 mm
12:42 AM 70.6°F21.4°C 65.8°F18.8°C 85% 11.7 mph SE18.8 kmh SE 17.7 mph28.5 kmh 29.83 in1010.2 mb 0.00 in0.0 mm 0.00 in/hr0.0 mm/hr 0.00 in0.0 mm
12:47 AM 70.6°F21.4°C 66.2°F19.0°C 86% 12.9 mph SE20.8 kmh SE 17.4 mph28.0 kmh 29.83 in1010.2 mb 0.00 in0.0 mm 0.00 in/hr0.0 mm/hr 0.00 in0.0 mm
12:52 AM 70.4°F21.3°C 66.0°F18.9°C 86% 7.9 mph ESE12.7 kmh ESE 16.3 mph26.2 kmh 29.83 in1010.2 mb 0.00 in0.0 mm 0.00 in/hr0.0 mm/hr 0.00 in0.0 mm
12:57 AM 70.2°F21.2°C 65.8°F18.8°C 86% 8.4 mph SE13.5 kmh SE 17.9 mph28.8 kmh 29.83 in1010.2 mb 0.00 in0.0 mm 0.00 in/hr0.0 mm/hr 0.00 in0.0 mm
01:02 AM 70.2°F21.2°C 65.8°F18.8°C 86% 10.7 mph SE17.2 kmh SE 17.9 mph28.8 kmh 29.83 in1010.2 mb 0.00 in0.0 mm 0.00 in/hr0.0 mm/hr 0.00 in0.0 mm
01:07 AM 70.0°F21.1°C 66.0°F18.9°C 87% 11.3 mph ESE18.2 kmh ESE 14.3 mph23.0 kmh 29.83 in1010.2 mb 0.00 in0.0 mm 0.00 in/hr0.0 mm/hr 0.00 in0.0 mm
01:12 AM 70.0°F21.1°C 66.0°F18.9°C 87% 12.1 mph SE19.5 kmh SE 16.6 mph26.7 kmh 29.83 in1010.2 mb 0.00 in0.0 mm 0.00 in/hr0.0 mm/hr 0.00 in0.0 mm
01:17 AM 70.0°F21.1°C 66.0°F18.9°C 87% 8.2 mph SE13.2 kmh SE 16.6 mph26.7 kmh 29.83 in1010.2 mb 0.00 in0.0 mm 0.00 in/hr0.0 mm/hr 0.00 in0.0 mm
01:22 AM 69.8°F21.0°C 65.8°F18.8°C 87% 13.7 mph SE22.0 kmh SE 19.5 mph31.4 kmh 29.83 in1010.2 mb 0.00 in0.0 mm 0.00 in/hr0.0 mm/hr 0.00 in0.0 mm
01:27 AM 69.8°F21.0°C 65.8°F18.8°C 87% 10.3 mph SE16.6 kmh SE 19.5 mph31.4 kmh 29.82 in1009.8 mb 0.00 in0.0 mm 0.00 in/hr0.0 mm/hr 0.00 in0.0 mm
01:32 AM 69.8°F21.0°C 65.8°F18.8°C 87% 9.2 mph SE14.8 kmh SE 16.3 mph26.2 kmh 29.82 in1009.8 mb 0.00 in0.0 mm 0.00 in/hr0.0 mm/hr 0.00 in0.0 mm
01:37 AM 69.8°F21.0°C 65.8°F18.8°C 87% 11.4 mph ESE18.3 kmh ESE 14.5 mph23.3 kmh 29.82 in1009.8 mb 0.00 in0.0 mm 0.00 in/hr0.0 mm/hr 0.00 in0.0 mm
01:42 AM 69.8°F21.0°C 65.8°F18.8°C 87% 8.9 mph SE14.3 kmh SE 17.4 mph28.0 kmh 29.82 in1009.8 mb 0.00 in0.0 mm 0.00 in/hr0.0 mm/hr 0.00 in0.0 mm
01:47 AM 69.8°F21.0°C 65.8°F18.8°C 87% 11.9 mph SE19.2 kmh SE 17.4 mph28.0 kmh 29.82 in1009.8 mb 0.00 in0.0 mm 0.00 in/hr0.0 mm/hr 0.00 in0.0 mm
01:52 AM 69.8°F21.0°C 65.8°F18.8°C 87% 11.3 mph SE18.2 kmh SE 21.3 mph34.3 kmh 29.82 in1009.8 mb 0.00 in0.0 mm 0.00 in/hr0.0 mm/hr 0.00 in0.0 mm
01:57 AM 69.8°F21.0°C 65.4°F18.6°C 86% 10.0 mph SE16.1 kmh SE 21.3 mph34.3 kmh 29.81 in1009.5 mb 0.00 in0.0 mm 0.00 in/hr0.0 mm/hr 0.00 in0.0 mm
02:02 AM 69.7°F20.9°C 65.3°F18.5°C 86% 9.1 mph SE14.6 kmh SE 20.6 mph33.2 kmh 29.81 in1009.5 mb 0.00 in0.0 mm 0.00 in/hr0.0 mm/hr 0.00 in0.0 mm
02:07 AM 69.7°F20.9°C 65.3°F18.5°C 86% 11.5 mph SE18.5 kmh SE 15.9 mph25.6 kmh 29.81 in1009.5 mb 0.00 in0.0 mm 0.00 in/hr0.0 mm/hr 0.00 in0.0 mm
02:12 AM 69.7°F20.9°C 65.3°F18.5°C 86% 11.9 mph SE19.2 kmh SE 15.9 mph25.6 kmh 29.81 in1009.5 mb 0.00 in0.0 mm 0.00 in/hr0.0 mm/hr 0.00 in0.0 mm
02:17 AM 69.7°F20.9°C 64.9°F18.3°C 85% 12.5 mph SE20.1 kmh SE 16.1 mph25.9 kmh 29.81 in1009.5 mb 0.00 in0.0 mm 0.00 in/hr0.0 mm/hr 0.00 in0.0 mm
02:22 AM 69.7°F20.9°C 64.9°F18.3°C 85% 11.6 mph SE18.7 kmh SE 16.1 mph25.9 kmh 29.80 in1009.1 mb 0.00 in0.0 mm 0.00 in/hr0.0 mm/hr 0.00 in0.0 mm
02:27 AM 69.7°F20.9°C 64.9°F18.3°C 85% 11.4 mph SE18.3 kmh SE 15.9 mph25.6 kmh 29.80 in1009.1 mb 0.00 in0.0 mm 0.00 in/hr0.0 mm/hr 0.00 in0.0 mm
02:32 AM 69.7°F20.9°C 64.9°F18.3°C 85% 11.2 mph SE18.0 kmh SE 19.0 mph30.6 kmh 29.80 in1009.1 mb 0.00 in0.0 mm 0.00 in/hr0.0 mm/hr 0.00 in0.0 mm
02:37 AM 69.7°F20.9°C 64.9°F18.3°C 85% 12.7 mph SE20.4 kmh SE 19.0 mph30.6 kmh 29.80 in1009.1 mb 0.00 in0.0 mm 0.00 in/hr0.0 mm/hr 0.00 in0.0 mm
02:42 AM 69.7°F20.9°C 64.9°F18.3°C 85% 12.6 mph SE20.3 kmh SE 17.2 mph27.7 kmh 29.80 in1009.1 mb 0.00 in0.0 mm 0.00 in/hr0.0 mm/hr 0.00 in0.0 mm
02:47 AM 69.7°F20.9°C 64.9°F18.3°C 85% 11.9 mph SE19.2 kmh SE 16.8 mph27.0 kmh 29.80 in1009.1 mb 0.00 in0.0 mm 0.00 in/hr0.0 mm/hr 0.00 in0.0 mm
02:52 AM 69.8°F21.0°C 65.1°F18.4°C 85% 14.1 mph SE22.7 kmh SE 17.2 mph27.7 kmh 29.80 in1009.1 mb 0.00 in0.0 mm 0.00 in/hr0.0 mm/hr 0.00 in0.0 mm
02:57 AM 69.7°F20.9°C 64.9°F18.3°C 85% 9.9 mph SE15.9 kmh SE 17.2 mph27.7 kmh 29.79 in1008.8 mb 0.00 in0.0 mm 0.00 in/hr0.0 mm/hr 0.00 in0.0 mm
03:02 AM 69.7°F20.9°C 64.9°F18.3°C 85% 13.5 mph SE21.7 kmh SE 17.9 mph28.8 kmh 29.79 in1008.8 mb 0.00 in0.0 mm 0.00 in/hr0.0 mm/hr 0.00 in0.0 mm
03:07 AM 69.8°F21.0°C 65.1°F18.4°C 85% 13.8 mph SE22.2 kmh SE 17.9 mph28.8 kmh 29.79 in1008.8 mb 0.00 in0.0 mm 0.00 in/hr0.0 mm/hr 0.00 in0.0 mm
03:12 AM 69.8°F21.0°C 65.1°F18.4°C 85% 12.1 mph SE19.5 kmh SE 16.6 mph26.7 kmh 29.79 in1008.8 mb 0.00 in0.0 mm 0.00 in/hr0.0 mm/hr 0.00 in0.0 mm
03:17 AM 69.8°F21.0°C 65.1°F18.4°C 85% 13.3 mph SE21.4 kmh SE 18.6 mph29.9 kmh 29.79 in1008.8 mb 0.00 in0.0 mm 0.00 in/hr0.0 mm/hr 0.00 in0.0 mm
03:22 AM 69.8°F21.0°C 64.7°F18.2°C 84% 14.2 mph SE22.9 kmh SE 19.5 mph31.4 kmh 29.79 in1008.8 mb 0.00 in0.0 mm 0.00 in/hr0.0 mm/hr 0.00 in0.0 mm
03:27 AM 69.8°F21.0°C 65.1°F18.4°C 85% 15.2 mph SE24.5 kmh SE 20.1 mph32.3 kmh 29.78 in1008.5 mb 0.00 in0.0 mm 0.00 in/hr0.0 mm/hr 0.00 in0.0 mm
03:32 AM 69.8°F21.0°C 64.7°F18.2°C 84% 17.0 mph SE27.4 kmh SE 22.4 mph36.0 kmh 29.78 in1008.5 mb 0.00 in0.0 mm 0.00 in/hr0.0 mm/hr 0.00 in0.0 mm
03:37 AM 69.8°F21.0°C 65.1°F18.4°C 85% 11.3 mph SE18.2 kmh SE 22.4 mph36.0 kmh 29.78 in1008.5 mb 0.00 in0.0 mm 0.00 in/hr0.0 mm/hr 0.00 in0.0 mm
03:42 AM 69.8°F21.0°C 65.1°F18.4°C 85% 17.1 mph SE27.5 kmh SE 22.4 mph36.0 kmh 29.78 in1008.5 mb 0.00 in0.0 mm 0.00 in/hr0.0 mm/hr 0.00 in0.0 mm
03:47 AM 69.8°F21.0°C 65.1°F18.4°C 85% 10.9 mph SE17.5 kmh SE 22.4 mph36.0 kmh 29.79 in1008.8 mb 0.00 in0.0 mm 0.00 in/hr0.0 mm/hr 0.00 in0.0 mm
03:52 AM 69.8°F21.0°C 65.1°F18.4°C 85% 12.6 mph SE20.3 kmh SE 19.0 mph30.6 kmh 29.78 in1008.5 mb 0.00 in0.0 mm 0.00 in/hr0.0 mm/hr 0.00 in0.0 mm
03:57 AM 69.8°F21.0°C 65.1°F18.4°C 85% 13.1 mph SE21.1 kmh SE 19.0 mph30.6 kmh 29.79 in1008.8 mb 0.00 in0.0 mm 0.00 in/hr0.0 mm/hr 0.00 in0.0 mm
04:02 AM 69.8°F21.0°C 64.7°F18.2°C 84% 13.8 mph SE22.2 kmh SE 19.0 mph30.6 kmh 29.79 in1008.8 mb 0.00 in0.0 mm 0.00 in/hr0.0 mm/hr 0.00 in0.0 mm
04:07 AM 69.7°F20.9°C 64.9°F18.3°C 85% 11.7 mph SE18.8 kmh SE 21.3 mph34.3 kmh 29.79 in1008.8 mb 0.00 in0.0 mm 0.00 in/hr0.0 mm/hr 0.00 in0.0 mm
04:12 AM 69.7°F20.9°C 64.9°F18.3°C 85% 11.7 mph SE18.8 kmh SE 21.3 mph34.3 kmh 29.79 in1008.8 mb 0.00 in0.0 mm 0.00 in/hr0.0 mm/hr 0.00 in0.0 mm
04:17 AM 69.7°F20.9°C 64.5°F18.1°C 84% 10.4 mph SE16.7 kmh SE 17.2 mph27.7 kmh 29.79 in1008.8 mb 0.00 in0.0 mm 0.00 in/hr0.0 mm/hr 0.00 in0.0 mm
04:23 AM 69.8°F21.0°C 64.7°F18.2°C 84% 10.5 mph SE16.9 kmh SE 17.2 mph27.7 kmh 29.79 in1008.8 mb 0.00 in0.0 mm 0.00 in/hr0.0 mm/hr 0.00 in0.0 mm
04:28 AM 69.8°F21.0°C 64.7°F18.2°C 84% 13.0 mph SE20.9 kmh SE 17.2 mph27.7 kmh 29.79 in1008.8 mb 0.00 in0.0 mm 0.00 in/hr0.0 mm/hr 0.00 in0.0 mm
04:33 AM 69.8°F21.0°C 64.7°F18.2°C 84% 10.9 mph SE17.5 kmh SE 17.2 mph27.7 kmh 29.79 in1008.8 mb 0.00 in0.0 mm 0.00 in/hr0.0 mm/hr 0.00 in0.0 mm
04:38 AM 69.8°F21.0°C 64.7°F18.2°C 84% 8.3 mph SSE13.4 kmh SSE 16.8 mph27.0 kmh 29.79 in1008.8 mb 0.00 in0.0 mm 0.00 in/hr0.0 mm/hr 0.00 in0.0 mm
04:43 AM 69.8°F21.0°C 64.7°F18.2°C 84% 13.8 mph SE22.2 kmh SE 18.3 mph29.5 kmh 29.79 in1008.8 mb 0.00 in0.0 mm 0.00 in/hr0.0 mm/hr 0.00 in0.0 mm
04:48 AM 69.8°F21.0°C 64.7°F18.2°C 84% 12.0 mph SE19.3 kmh SE 18.3 mph29.5 kmh 29.79 in1008.8 mb 0.00 in0.0 mm 0.00 in/hr0.0 mm/hr 0.00 in0.0 mm
04:53 AM 69.8°F21.0°C 64.7°F18.2°C 84% 7.9 mph SE12.7 kmh SE 15.9 mph25.6 kmh 29.79 in1008.8 mb 0.00 in0.0 mm 0.00 in/hr0.0 mm/hr 0.00 in0.0 mm
04:58 AM 70.0°F21.1°C 64.9°F18.3°C 84% 12.4 mph SE20.0 kmh SE 19.0 mph30.6 kmh 29.79 in1008.8 mb 0.00 in0.0 mm 0.00 in/hr0.0 mm/hr 0.00 in0.0 mm
05:03 AM 69.8°F21.0°C 64.7°F18.2°C 84% 9.6 mph SE15.4 kmh SE 19.0 mph30.6 kmh 29.79 in1008.8 mb 0.00 in0.0 mm 0.00 in/hr0.0 mm/hr 0.00 in0.0 mm
05:08 AM 69.8°F21.0°C 64.7°F18.2°C 84% 8.3 mph SE13.4 kmh SE 19.0 mph30.6 kmh 29.79 in1008.8 mb 0.00 in0.0 mm 0.00 in/hr0.0 mm/hr 0.00 in0.0 mm
05:13 AM 70.0°F21.1°C 64.9°F18.3°C 84% 6.0 mph SSE9.7 kmh SSE 14.3 mph23.0 kmh 29.80 in1009.1 mb 0.00 in0.0 mm 0.00 in/hr0.0 mm/hr 0.00 in0.0 mm
05:18 AM 70.0°F21.1°C 64.9°F18.3°C 84% 11.6 mph SE18.7 kmh SE 14.5 mph23.3 kmh 29.80 in1009.1 mb 0.00 in0.0 mm 0.00 in/hr0.0 mm/hr 0.00 in0.0 mm
05:23 AM 70.0°F21.1°C 64.9°F18.3°C 84% 8.1 mph SE13.0 kmh SE 14.5 mph23.3 kmh 29.80 in1009.1 mb 0.00 in0.0 mm 0.00 in/hr0.0 mm/hr 0.00 in0.0 mm
05:28 AM 70.2°F21.2°C 65.1°F18.4°C 84% 15.5 mph SE24.9 kmh SE 20.8 mph33.5 kmh 29.79 in1008.8 mb 0.00 in0.0 mm 0.00 in/hr0.0 mm/hr 0.00 in0.0 mm
05:33 AM 70.2°F21.2°C 65.1°F18.4°C 84% 7.4 mph SE11.9 kmh SE 20.8 mph33.5 kmh 29.80 in1009.1 mb 0.00 in0.0 mm 0.00 in/hr0.0 mm/hr 0.00 in0.0 mm
05:38 AM 70.2°F21.2°C 65.1°F18.4°C 84% 10.0 mph SSE16.1 kmh SSE 16.8 mph27.0 kmh 29.80 in1009.1 mb 0.00 in0.0 mm 0.00 in/hr0.0 mm/hr 0.00 in0.0 mm
05:43 AM 70.2°F21.2°C 65.1°F18.4°C 84% 9.0 mph ESE14.5 kmh ESE 16.8 mph27.0 kmh 29.80 in1009.1 mb 0.00 in0.0 mm 0.00 in/hr0.0 mm/hr 0.00 in0.0 mm
05:48 AM 70.2°F21.2°C 65.1°F18.4°C 84% 10.3 mph SE16.6 kmh SE 16.8 mph27.0 kmh 29.80 in1009.1 mb 0.00 in0.0 mm 0.00 in/hr0.0 mm/hr 0.00 in0.0 mm
05:53 AM 70.2°F21.2°C 65.1°F18.4°C 84% 14.0 mph SE22.5 kmh SE 20.4 mph32.8 kmh 29.80 in1009.1 mb 0.00 in0.0 mm 0.00 in/hr0.0 mm/hr 0.00 in0.0 mm
05:58 AM 70.2°F21.2°C 65.1°F18.4°C 84% 10.8 mph SE17.4 kmh SE 20.4 mph32.8 kmh 29.80 in1009.1 mb 0.00 in0.0 mm 0.00 in/hr0.0 mm/hr 0.00 in0.0 mm
06:03 AM 70.4°F21.3°C 65.3°F18.5°C 84% 12.7 mph SE20.4 kmh SE 17.4 mph28.0 kmh 29.80 in1009.1 mb 0.00 in0.0 mm 0.00 in/hr0.0 mm/hr 0.00 in0.0 mm
06:08 AM 70.4°F21.3°C 65.3°F18.5°C 84% 11.1 mph SE17.9 kmh SE 16.3 mph26.2 kmh 29.80 in1009.1 mb 0.00 in0.0 mm 0.00 in/hr0.0 mm/hr 0.00 in0.0 mm
06:13 AM 70.4°F21.3°C 65.3°F18.5°C 84% 13.0 mph SE20.9 kmh SE 16.3 mph26.2 kmh 29.81 in1009.5 mb 0.00 in0.0 mm 0.00 in/hr0.0 mm/hr 0.00 in0.0 mm
06:18 AM 70.4°F21.3°C 65.3°F18.5°C 84% 11.2 mph SE18.0 kmh SE 16.3 mph26.2 kmh 29.81 in1009.5 mb 0.00 in0.0 mm 0.00 in/hr0.0 mm/hr 0.00 in0.0 mm
06:23 AM 70.4°F21.3°C 65.3°F18.5°C 84% 10.1 mph SE16.3 kmh SE 17.4 mph28.0 kmh 29.81 in1009.5 mb 0.00 in0.0 mm 0.00 in/hr0.0 mm/hr 0.00 in0.0 mm
06:28 AM 70.6°F21.4°C 65.4°F18.6°C 84% 6.1 mph SSE9.8 kmh SSE 17.4 mph28.0 kmh 29.81 in1009.5 mb 0.00 in0.0 mm 0.00 in/hr0.0 mm/hr 0.00 in0.0 mm
06:33 AM 70.6°F21.4°C 65.4°F18.6°C 84% 5.0 mph SE8.0 kmh SE 12.8 mph20.6 kmh 29.82 in1009.8 mb 0.00 in0.0 mm 0.00 in/hr0.0 mm/hr 0.00 in0.0 mm
06:38 AM 70.6°F21.4°C 65.4°F18.6°C 84% 6.0 mph SE9.7 kmh SE 12.8 mph20.6 kmh 29.82 in1009.8 mb 0.00 in0.0 mm 0.00 in/hr0.0 mm/hr 0.00 in0.0 mm
06:43 AM 70.7°F21.5°C 65.6°F18.7°C 84% 4.5 mph SE7.2 kmh SE 9.8 mph15.8 kmh 29.82 in1009.8 mb 0.00 in0.0 mm 0.00 in/hr0.0 mm/hr 0.00 in0.0 mm
06:48 AM 70.7°F21.5°C 65.6°F18.7°C 84% 7.1 mph SE11.4 kmh SE 9.8 mph15.8 kmh 29.82 in1009.8 mb 0.00 in0.0 mm 0.00 in/hr0.0 mm/hr 0.00 in0.0 mm
06:53 AM 70.7°F21.5°C 65.6°F18.7°C 84% 7.8 mph SE12.6 kmh SE 11.4 mph18.3 kmh 29.83 in1010.2 mb 0.00 in0.0 mm 0.00 in/hr0.0 mm/hr 0.00 in0.0 mm
06:58 AM 70.9°F21.6°C 66.2°F19.0°C 85% 8.2 mph SE13.2 kmh SE 13.6 mph21.9 kmh 29.82 in1009.8 mb 0.00 in0.0 mm 0.00 in/hr0.0 mm/hr 0.00 in0.0 mm
07:03 AM 70.9°F21.6°C 65.8°F18.8°C 84% 5.7 mph SE9.2 kmh SE 14.1 mph22.7 kmh 29.82 in1009.8 mb 0.00 in0.0 mm 0.00 in/hr0.0 mm/hr 0.00 in0.0 mm
07:08 AM 71.1°F21.7°C 66.0°F18.9°C 84% 9.3 mph SE15.0 kmh SE 15.7 mph25.3 kmh 29.82 in1009.8 mb 0.00 in0.0 mm 0.00 in/hr0.0 mm/hr 0.00 in0.0 mm
07:13 AM 71.3°F21.8°C 66.2°F19.0°C 84% 9.5 mph SE15.3 kmh SE 15.7 mph25.3 kmh 29.82 in1009.8 mb 0.00 in0.0 mm 0.00 in/hr0.0 mm/hr 0.00 in0.0 mm
07:18 AM 71.3°F21.8°C 66.2°F19.0°C 84% 6.6 mph SE10.6 kmh SE 17.4 mph28.0 kmh 29.82 in1009.8 mb 0.00 in0.0 mm 0.00 in/hr0.0 mm/hr 0.00 in0.0 mm
07:23 AM 71.6°F22.0°C 66.2°F19.0°C 83% 7.9 mph SE12.7 kmh SE 17.4 mph28.0 kmh 29.83 in1010.2 mb 0.00 in0.0 mm 0.00 in/hr0.0 mm/hr 0.00 in0.0 mm
07:28 AM 71.6°F22.0°C 66.2°F19.0°C 83% 6.5 mph SE10.5 kmh SE 17.4 mph28.0 kmh 29.82 in1009.8 mb 0.00 in0.0 mm 0.00 in/hr0.0 mm/hr 0.00 in0.0 mm
07:33 AM 71.6°F22.0°C 66.2°F19.0°C 83% 7.8 mph SE12.6 kmh SE 14.3 mph23.0 kmh 29.82 in1009.8 mb 0.00 in0.0 mm 0.00 in/hr0.0 mm/hr 0.00 in0.0 mm
07:38 AM 71.8°F22.1°C 66.3°F19.1°C 83% 10.4 mph SE16.7 kmh SE 14.3 mph23.0 kmh 29.82 in1009.8 mb 0.00 in0.0 mm 0.00 in/hr0.0 mm/hr 0.00 in0.0 mm
07:43 AM 71.8°F22.1°C 66.3°F19.1°C 83% 12.0 mph SE19.3 kmh SE 19.9 mph32.0 kmh 29.82 in1009.8 mb 0.00 in0.0 mm 0.00 in/hr0.0 mm/hr 0.00 in0.0 mm
07:48 AM 72.0°F22.2°C 66.5°F19.2°C 83% 8.3 mph SE13.4 kmh SE 19.9 mph32.0 kmh 29.83 in1010.2 mb 0.00 in0.0 mm 0.00 in/hr0.0 mm/hr 0.00 in0.0 mm
07:53 AM 72.0°F22.2°C 66.3°F19.1°C 82% 8.9 mph SE14.3 kmh SE 15.0 mph24.1 kmh 29.82 in1009.8 mb 0.00 in0.0 mm 0.00 in/hr0.0 mm/hr 0.00 in0.0 mm
07:58 AM 72.0°F22.2°C 66.3°F19.1°C 82% 12.5 mph SE20.1 kmh SE 17.9 mph28.8 kmh 29.82 in1009.8 mb 0.00 in0.0 mm 0.00 in/hr0.0 mm/hr 0.00 in0.0 mm
08:03 AM 71.8°F22.1°C 66.3°F19.1°C 83% 10.4 mph SE16.7 kmh SE 17.9 mph28.8 kmh 29.82 in1009.8 mb 0.00 in0.0 mm 0.00 in/hr0.0 mm/hr 0.00 in0.0 mm
08:08 AM 71.6°F22.0°C 65.9°F18.8°C 82% 11.5 mph SE18.5 kmh SE 17.7 mph28.5 kmh 29.82 in1009.8 mb 0.00 in0.0 mm 0.00 in/hr0.0 mm/hr 0.00 in0.0 mm
08:12 AM 71.8°F22.1°C 66.1°F18.9°C 82% 9.9 mph SE15.9 kmh SE 17.0 mph27.4 kmh 29.82 in1009.8 mb 0.00 in0.0 mm 0.00 in/hr0.0 mm/hr 0.00 in0.0 mm
08:17 AM 72.0°F22.2°C 65.9°F18.8°C 81% 11.1 mph ESE17.9 kmh ESE 19.2 mph30.9 kmh 29.82 in1009.8 mb 0.00 in0.0 mm 0.00 in/hr0.0 mm/hr 0.00 in0.0 mm
08:23 AM 72.2°F22.3°C 66.4°F19.1°C 82% 12.1 mph SSE19.5 kmh SSE 19.2 mph30.9 kmh 29.82 in1009.8 mb 0.00 in0.0 mm 0.00 in/hr0.0 mm/hr 0.00 in0.0 mm
08:28 AM 72.2°F22.3°C 66.1°F18.9°C 81% 11.6 mph SSE18.7 kmh SSE 17.4 mph28.0 kmh 29.82 in1009.8 mb 0.00 in0.0 mm 0.00 in/hr0.0 mm/hr 0.00 in0.0 mm
08:33 AM 72.4°F22.4°C 65.9°F18.8°C 80% 14.6 mph SE23.5 kmh SE 17.4 mph28.0 kmh 29.82 in1009.8 mb 0.00 in0.0 mm 0.00 in/hr0.0 mm/hr 0.00 in0.0 mm
08:38 AM 72.5°F22.5°C 66.1°F18.9°C 80% 11.5 mph SE18.5 kmh SE 18.1 mph29.1 kmh 29.81 in1009.5 mb 0.00 in0.0 mm 0.00 in/hr0.0 mm/hr 0.00 in0.0 mm
08:43 AM 72.5°F22.5°C 66.1°F18.9°C 80% 9.4 mph SE15.1 kmh SE 18.1 mph29.1 kmh 29.82 in1009.8 mb 0.00 in0.0 mm 0.00 in/hr0.0 mm/hr 0.00 in0.0 mm
08:48 AM 72.5°F22.5°C 66.4°F19.1°C 81% 15.0 mph SE24.1 kmh SE 15.4 mph24.8 kmh 29.81 in1009.5 mb 0.00 in0.0 mm 0.00 in/hr0.0 mm/hr 0.00 in0.0 mm
08:53 AM 72.5°F22.5°C 66.4°F19.1°C 81% 11.4 mph SE18.3 kmh SE 19.0 mph30.6 kmh 29.82 in1009.8 mb 0.00 in0.0 mm 0.00 in/hr0.0 mm/hr 0.00 in0.0 mm
08:58 AM 72.7°F22.6°C 66.6°F19.2°C 81% 8.0 mph SE12.9 kmh SE 19.0 mph30.6 kmh 29.82 in1009.8 mb 0.00 in0.0 mm 0.00 in/hr0.0 mm/hr 0.00 in0.0 mm
09:03 AM 72.7°F22.6°C 66.6°F19.2°C 81% 7.9 mph SE12.7 kmh SE 16.8 mph27.0 kmh 29.82 in1009.8 mb 0.00 in0.0 mm 0.00 in/hr0.0 mm/hr 0.00 in0.0 mm
09:08 AM 72.7°F22.6°C 66.6°F19.2°C 81% 7.4 mph SE11.9 kmh SE 13.4 mph21.6 kmh 29.82 in1009.8 mb 0.00 in0.0 mm 0.00 in/hr0.0 mm/hr 0.00 in0.0 mm
09:13 AM 72.5°F22.5°C 66.4°F19.1°C 81% 13.2 mph SE21.2 kmh SE 15.0 mph24.1 kmh 29.82 in1009.8 mb 0.00 in0.0 mm 0.00 in/hr0.0 mm/hr 0.00 in0.0 mm
09:17 AM 72.7°F22.6°C 66.6°F19.2°C 81% 10.5 mph SE16.9 kmh SE 18.8 mph30.3 kmh 29.82 in1009.8 mb 0.00 in0.0 mm 0.00 in/hr0.0 mm/hr 0.00 in0.0 mm
09:23 AM 72.7°F22.6°C 66.6°F19.2°C 81% 8.0 mph SE12.9 kmh SE 18.8 mph30.3 kmh 29.82 in1009.8 mb 0.00 in0.0 mm 0.00 in/hr0.0 mm/hr 0.00 in0.0 mm
09:28 AM 73.1°F22.8°C 67.0°F19.4°C 81% 8.9 mph SE14.3 kmh SE 16.3 mph26.2 kmh 29.81 in1009.5 mb 0.00 in0.0 mm 0.00 in/hr0.0 mm/hr 0.00 in0.0 mm
09:33 AM 73.6°F23.1°C 66.8°F19.3°C 79% 12.6 mph SE20.3 kmh SE 16.3 mph26.2 kmh 29.81 in1009.5 mb 0.00 in0.0 mm 0.00 in/hr0.0 mm/hr 0.00 in0.0 mm
09:38 AM 74.0°F23.3°C 66.7°F19.3°C 78% 9.1 mph SE14.6 kmh SE 20.6 mph33.2 kmh 29.81 in1009.5 mb 0.00 in0.0 mm 0.00 in/hr0.0 mm/hr 0.00 in0.0 mm
09:43 AM 74.2°F23.4°C 66.5°F19.2°C 77% 9.1 mph SE14.6 kmh SE 20.6 mph33.2 kmh 29.82 in1009.8 mb 0.00 in0.0 mm 0.00 in/hr0.0 mm/hr 0.00 in0.0 mm
09:48 AM 74.5°F23.6°C 66.9°F19.4°C 77% 18.1 mph SE29.1 kmh SE 22.4 mph36.0 kmh 29.81 in1009.5 mb 0.00 in0.0 mm 0.00 in/hr0.0 mm/hr 0.00 in0.0 mm
09:53 AM 74.9°F23.8°C 66.9°F19.4°C 76% 11.4 mph SE18.3 kmh SE 22.4 mph36.0 kmh 29.81 in1009.5 mb 0.00 in0.0 mm 0.00 in/hr0.0 mm/hr 0.00 in0.0 mm
09:58 AM 74.5°F23.6°C 66.9°F19.4°C 77% 7.4 mph SE11.9 kmh SE 16.3 mph26.2 kmh 29.82 in1009.8 mb 0.00 in0.0 mm 0.00 in/hr0.0 mm/hr 0.00 in0.0 mm
10:03 AM 74.5°F23.6°C 66.5°F19.2°C 76% 9.1 mph SSE14.6 kmh SSE 16.1 mph25.9 kmh 29.82 in1009.8 mb 0.00 in0.0 mm 0.00 in/hr0.0 mm/hr 0.00 in0.0 mm
10:08 AM 74.5°F23.6°C 66.9°F19.4°C 77% 9.1 mph SE14.6 kmh SE 15.9 mph25.6 kmh 29.82 in1009.8 mb 0.00 in0.0 mm 0.00 in/hr0.0 mm/hr 0.00 in0.0 mm
10:13 AM 74.5°F23.6°C 66.9°F19.4°C 77% 5.9 mph SE9.5 kmh SE 14.8 mph23.8 kmh 29.82 in1009.8 mb 0.00 in0.0 mm 0.00 in/hr0.0 mm/hr 0.00 in0.0 mm
10:18 AM 75.1°F23.9°C 67.0°F19.4°C 76% 8.0 mph SE12.9 kmh SE 13.6 mph21.9 kmh 29.82 in1009.8 mb 0.00 in0.0 mm 0.00 in/hr0.0 mm/hr 0.00 in0.0 mm
10:22 AM 75.2°F24.0°C 66.8°F19.3°C 75% 9.0 mph S14.5 kmh S 17.7 mph28.5 kmh 29.82 in1009.8 mb 0.00 in0.0 mm 0.00 in/hr0.0 mm/hr 0.00 in0.0 mm
10:28 AM 75.2°F24.0°C 66.8°F19.3°C 75% 10.2 mph SE16.4 kmh SE 17.7 mph28.5 kmh 29.82 in1009.8 mb 0.00 in0.0 mm 0.00 in/hr0.0 mm/hr 0.00 in0.0 mm
10:33 AM 75.6°F24.2°C 66.3°F19.1°C 73% 6.9 mph S11.1 kmh S 14.3 mph23.0 kmh 29.82 in1009.8 mb 0.00 in0.0 mm 0.00 in/hr0.0 mm/hr 0.00 in0.0 mm
10:38 AM 75.6°F24.2°C 66.3°F19.1°C 73% 10.4 mph SE16.7 kmh SE 16.1 mph25.9 kmh 29.82 in1009.8 mb 0.00 in0.0 mm 0.00 in/hr0.0 mm/hr 0.00 in0.0 mm
10:43 AM 75.4°F24.1°C 67.0°F19.4°C 75% 9.9 mph ESE15.9 kmh ESE 16.1 mph25.9 kmh 29.82 in1009.8 mb 0.00 in0.0 mm 0.00 in/hr0.0 mm/hr 0.00 in0.0 mm
10:48 AM 75.4°F24.1°C 67.0°F19.4°C 75% 6.3 mph SE10.1 kmh SE 16.1 mph25.9 kmh 29.82 in1009.8 mb 0.00 in0.0 mm 0.00 in/hr0.0 mm/hr 0.00 in0.0 mm
10:53 AM 76.0°F24.4°C 67.9°F19.9°C 76% 4.2 mph SE6.8 kmh SE 9.6 mph15.4 kmh 29.81 in1009.5 mb 0.00 in0.0 mm 0.00 in/hr0.0 mm/hr 0.00 in0.0 mm
10:58 AM 76.0°F24.4°C 67.5°F19.7°C 75% 5.9 mph SE9.5 kmh SE 8.9 mph14.3 kmh 29.81 in1009.5 mb 0.00 in0.0 mm 0.00 in/hr0.0 mm/hr 0.00 in0.0 mm
11:03 AM 76.3°F24.6°C 67.1°F19.5°C 73% 10.6 mph SE17.1 kmh SE 18.1 mph29.1 kmh 29.81 in1009.5 mb 0.00 in0.0 mm 0.00 in/hr0.0 mm/hr 0.00 in0.0 mm
11:08 AM 76.1°F24.5°C 67.2°F19.6°C 74% 13.9 mph SE22.4 kmh SE 21.7 mph34.9 kmh 29.81 in1009.5 mb 0.00 in0.0 mm 0.00 in/hr0.0 mm/hr 0.00 in0.0 mm
11:13 AM 75.6°F24.2°C 67.2°F19.6°C 75% 8.3 mph SE13.4 kmh SE 21.7 mph34.9 kmh 29.81 in1009.5 mb 0.00 in0.0 mm 0.00 in/hr0.0 mm/hr 0.00 in0.0 mm
11:18 AM 76.0°F24.4°C 67.5°F19.7°C 75% 4.5 mph SSE7.2 kmh SSE 16.3 mph26.2 kmh 29.80 in1009.1 mb 0.00 in0.0 mm 0.00 in/hr0.0 mm/hr 0.00 in0.0 mm
11:23 AM 76.7°F24.8°C 67.4°F19.7°C 73% 9.6 mph SE15.4 kmh SE 12.1 mph19.5 kmh 29.80 in1009.1 mb 0.00 in0.0 mm 0.00 in/hr0.0 mm/hr 0.00 in0.0 mm
11:27 AM 76.9°F24.9°C 67.1°F19.5°C 72% 9.8 mph SE15.8 kmh SE 12.8 mph20.6 kmh 29.80 in1009.1 mb 0.00 in0.0 mm 0.00 in/hr0.0 mm/hr 0.00 in0.0 mm
11:33 AM 76.5°F24.7°C 67.2°F19.6°C 73% 5.6 mph SE9.0 kmh SE 15.2 mph24.5 kmh 29.80 in1009.1 mb 0.00 in0.0 mm 0.00 in/hr0.0 mm/hr 0.00 in0.0 mm
11:38 AM 76.3°F24.6°C 66.7°F19.3°C 72% 8.2 mph SSE13.2 kmh SSE 15.2 mph24.5 kmh 29.80 in1009.1 mb 0.00 in0.0 mm 0.00 in/hr0.0 mm/hr 0.00 in0.0 mm
11:43 AM 76.0°F24.4°C 66.3°F19.1°C 72% 8.8 mph SE14.2 kmh SE 11.6 mph18.7 kmh 29.80 in1009.1 mb 0.00 in0.0 mm 0.00 in/hr0.0 mm/hr 0.00 in0.0 mm
11:48 AM 77.0°F25.0°C 67.0°F19.4°C 71% 8.0 mph SSE12.9 kmh SSE 11.6 mph18.7 kmh 29.80 in1009.1 mb 0.00 in0.0 mm 0.00 in/hr0.0 mm/hr 0.00 in0.0 mm
11:53 AM 77.8°F25.4°C 67.6°F19.8°C 71% 8.3 mph SE13.4 kmh SE 17.2 mph27.7 kmh 29.79 in1008.8 mb 0.00 in0.0 mm 0.00 in/hr0.0 mm/hr 0.00 in0.0 mm
11:58 AM 78.3°F25.7°C 67.3°F19.6°C 69% 7.7 mph S12.4 kmh S 17.2 mph27.7 kmh 29.79 in1008.8 mb 0.00 in0.0 mm 0.00 in/hr0.0 mm/hr 0.00 in0.0 mm
12:03 PM 77.9°F25.5°C 67.4°F19.7°C 70% 7.6 mph SE12.2 kmh SE 15.4 mph24.8 kmh 29.79 in1008.8 mb 0.00 in0.0 mm 0.00 in/hr0.0 mm/hr 0.00 in0.0 mm
12:08 PM 78.1°F25.6°C 67.2°F19.6°C 69% 10.8 mph SE17.4 kmh SE 15.4 mph24.8 kmh 29.78 in1008.5 mb 0.00 in0.0 mm 0.00 in/hr0.0 mm/hr 0.00 in0.0 mm
12:13 PM 77.9°F25.5°C 66.1°F18.9°C 67% 9.4 mph SE15.1 kmh SE 15.7 mph25.3 kmh 29.78 in1008.5 mb 0.00 in0.0 mm 0.00 in/hr0.0 mm/hr 0.00 in0.0 mm
12:18 PM 77.6°F25.3°C 67.5°F19.7°C 71% 7.9 mph SE12.7 kmh SE 16.1 mph25.9 kmh 29.78 in1008.5 mb 0.00 in0.0 mm 0.00 in/hr0.0 mm/hr 0.00 in0.0 mm
12:23 PM 77.4°F25.2°C 66.5°F19.2°C 69% 12.1 mph SE19.5 kmh SE 16.1 mph25.9 kmh 29.79 in1008.8 mb 0.00 in0.0 mm 0.00 in/hr0.0 mm/hr 0.00 in0.0 mm
12:28 PM 77.2°F25.1°C 67.1°F19.5°C 71% 3.4 mph SE5.5 kmh SE 15.7 mph25.3 kmh 29.78 in1008.5 mb 0.00 in0.0 mm 0.00 in/hr0.0 mm/hr 0.00 in0.0 mm
12:33 PM 77.4°F25.2°C 67.3°F19.6°C 71% 6.4 mph SE10.3 kmh SE 13.2 mph21.2 kmh 29.78 in1008.5 mb 0.00 in0.0 mm 0.00 in/hr0.0 mm/hr 0.00 in0.0 mm
12:38 PM 77.4°F25.2°C 67.0°F19.4°C 70% 7.7 mph SE12.4 kmh SE 15.9 mph25.6 kmh 29.78 in1008.5 mb 0.00 in0.0 mm 0.00 in/hr0.0 mm/hr 0.00 in0.0 mm
12:43 PM 77.4°F25.2°C 67.3°F19.6°C 71% 7.4 mph SSE11.9 kmh SSE 15.9 mph25.6 kmh 29.78 in1008.5 mb 0.00 in0.0 mm 0.00 in/hr0.0 mm/hr 0.00 in0.0 mm
12:48 PM 77.4°F25.2°C 67.0°F19.4°C 70% 8.5 mph SE13.7 kmh SE 16.8 mph27.0 kmh 29.78 in1008.5 mb 0.00 in0.0 mm 0.00 in/hr0.0 mm/hr 0.00 in0.0 mm
12:53 PM 77.4°F25.2°C 67.0°F19.4°C 70% 11.3 mph SE18.2 kmh SE 19.2 mph30.9 kmh 29.77 in1008.1 mb 0.00 in0.0 mm 0.00 in/hr0.0 mm/hr 0.00 in0.0 mm
12:58 PM 77.4°F25.2°C 67.0°F19.4°C 70% 10.6 mph SE17.1 kmh SE 19.2 mph30.9 kmh 29.77 in1008.1 mb 0.00 in0.0 mm 0.00 in/hr0.0 mm/hr 0.00 in0.0 mm
01:03 PM 77.8°F25.4°C 67.6°F19.8°C 71% 12.2 mph SE19.6 kmh SE 19.2 mph30.9 kmh 29.77 in1008.1 mb 0.00 in0.0 mm 0.00 in/hr0.0 mm/hr 0.00 in0.0 mm
01:08 PM 77.8°F25.4°C 67.6°F19.8°C 71% 6.5 mph SSE10.5 kmh SSE 18.6 mph29.9 kmh 29.77 in1008.1 mb 0.00 in0.0 mm 0.00 in/hr0.0 mm/hr 0.00 in0.0 mm
01:13 PM 77.6°F25.3°C 67.5°F19.7°C 71% 5.3 mph SSE8.5 kmh SSE 15.4 mph24.8 kmh 29.76 in1007.8 mb 0.00 in0.0 mm 0.00 in/hr0.0 mm/hr 0.00 in0.0 mm
01:18 PM 77.4°F25.2°C 67.3°F19.6°C 71% 9.6 mph SE15.4 kmh SE 22.4 mph36.0 kmh 29.76 in1007.8 mb 0.00 in0.0 mm 0.00 in/hr0.0 mm/hr 0.00 in0.0 mm
01:23 PM 77.4°F25.2°C 67.3°F19.6°C 71% 10.5 mph SE16.9 kmh SE 22.4 mph36.0 kmh 29.76 in1007.8 mb 0.00 in0.0 mm 0.00 in/hr0.0 mm/hr 0.00 in0.0 mm
01:28 PM 77.8°F25.4°C 67.2°F19.6°C 70% 11.3 mph SE18.2 kmh SE 18.1 mph29.1 kmh 29.76 in1007.8 mb 0.00 in0.0 mm 0.00 in/hr0.0 mm/hr 0.00 in0.0 mm
01:33 PM 77.4°F25.2°C 67.3°F19.6°C 71% 9.7 mph SE15.6 kmh SE 18.1 mph29.1 kmh 29.76 in1007.8 mb 0.00 in0.0 mm 0.00 in/hr0.0 mm/hr 0.00 in0.0 mm
01:38 PM 77.4°F25.2°C 67.7°F19.8°C 72% 11.4 mph SE18.3 kmh SE 17.2 mph27.7 kmh 29.76 in1007.8 mb 0.00 in0.0 mm 0.00 in/hr0.0 mm/hr 0.00 in0.0 mm
01:43 PM 77.4°F25.2°C 67.3°F19.6°C 71% 8.7 mph SE14.0 kmh SE 17.2 mph27.7 kmh 29.75 in1007.5 mb 0.00 in0.0 mm 0.00 in/hr0.0 mm/hr 0.00 in0.0 mm
01:48 PM 77.6°F25.3°C 67.5°F19.7°C 71% 6.0 mph SSE9.7 kmh SSE 14.8 mph23.8 kmh 29.75 in1007.5 mb 0.00 in0.0 mm 0.00 in/hr0.0 mm/hr 0.00 in0.0 mm
01:53 PM 77.9°F25.5°C 67.8°F19.9°C 71% 6.4 mph SSE10.3 kmh SSE 11.2 mph18.0 kmh 29.75 in1007.5 mb 0.00 in0.0 mm 0.00 in/hr0.0 mm/hr 0.00 in0.0 mm
01:58 PM 77.9°F25.5°C 67.8°F19.9°C 71% 7.2 mph SE11.6 kmh SE 11.2 mph18.0 kmh 29.75 in1007.5 mb 0.00 in0.0 mm 0.00 in/hr0.0 mm/hr 0.00 in0.0 mm
02:03 PM 78.1°F25.6°C 68.0°F20.0°C 71% 12.9 mph SE20.8 kmh SE 15.9 mph25.6 kmh 29.74 in1007.1 mb 0.00 in0.0 mm 0.00 in/hr0.0 mm/hr 0.00 in0.0 mm
02:08 PM 78.1°F25.6°C 68.0°F20.0°C 71% 14.3 mph SE23.0 kmh SE 19.2 mph30.9 kmh 29.74 in1007.1 mb 0.00 in0.0 mm 0.00 in/hr0.0 mm/hr 0.00 in0.0 mm
02:13 PM 77.8°F25.4°C 67.6°F19.8°C 71% 7.6 mph ESE12.2 kmh ESE 19.2 mph30.9 kmh 29.74 in1007.1 mb 0.00 in0.0 mm 0.00 in/hr0.0 mm/hr 0.00 in0.0 mm
02:18 PM 77.8°F25.4°C 67.6°F19.8°C 71% 8.9 mph SE14.3 kmh SE 17.4 mph28.0 kmh 29.74 in1007.1 mb 0.00 in0.0 mm 0.00 in/hr0.0 mm/hr 0.00 in0.0 mm
02:23 PM 77.8°F25.4°C 67.6°F19.8°C 71% 8.3 mph SE13.4 kmh SE 17.4 mph28.0 kmh 29.74 in1007.1 mb 0.00 in0.0 mm 0.00 in/hr0.0 mm/hr 0.00 in0.0 mm
02:28 PM 77.4°F25.2°C 67.0°F19.4°C 70% 11.1 mph SE17.9 kmh SE 17.7 mph28.5 kmh 29.74 in1007.1 mb 0.00 in0.0 mm 0.00 in/hr0.0 mm/hr 0.00 in0.0 mm
02:33 PM 77.4°F25.2°C 67.3°F19.6°C 71% 7.7 mph SE12.4 kmh SE 17.7 mph28.5 kmh 29.73 in1006.8 mb 0.00 in0.0 mm 0.00 in/hr0.0 mm/hr 0.00 in0.0 mm
02:38 PM 77.2°F25.1°C 67.5°F19.7°C 72% 10.3 mph SE16.6 kmh SE 15.7 mph25.3 kmh 29.73 in1006.8 mb 0.00 in0.0 mm 0.00 in/hr0.0 mm/hr 0.00 in0.0 mm
02:43 PM 77.4°F25.2°C 68.0°F20.0°C 73% 6.9 mph S11.1 kmh S 11.4 mph18.3 kmh 29.73 in1006.8 mb 0.00 in0.0 mm 0.00 in/hr0.0 mm/hr 0.00 in0.0 mm
02:48 PM 77.2°F25.1°C 67.9°F19.9°C 73% 9.3 mph SSE15.0 kmh SSE 14.3 mph23.0 kmh 29.73 in1006.8 mb 0.00 in0.0 mm 0.00 in/hr0.0 mm/hr 0.00 in0.0 mm
02:53 PM 77.0°F25.0°C 67.8°F19.9°C 73% 11.6 mph SE18.7 kmh SE 14.8 mph23.8 kmh 29.73 in1006.8 mb 0.00 in0.0 mm 0.00 in/hr0.0 mm/hr 0.00 in0.0 mm
02:58 PM 76.9°F24.9°C 67.6°F19.8°C 73% 12.6 mph SSE20.3 kmh SSE 16.6 mph26.7 kmh 29.73 in1006.8 mb 0.00 in0.0 mm 0.00 in/hr0.0 mm/hr 0.00 in0.0 mm
03:03 PM 77.0°F25.0°C 68.1°F20.1°C 74% 14.4 mph SSE23.2 kmh SSE 17.0 mph27.4 kmh 29.73 in1006.8 mb 0.00 in0.0 mm 0.00 in/hr0.0 mm/hr 0.00 in0.0 mm
03:08 PM 77.0°F25.0°C 67.8°F19.9°C 73% 15.7 mph SE25.3 kmh SE 19.0 mph30.6 kmh 29.72 in1006.4 mb 0.00 in0.0 mm 0.00 in/hr0.0 mm/hr 0.00 in0.0 mm
03:13 PM 76.9°F24.9°C 67.6°F19.8°C 73% 12.2 mph SE19.6 kmh SE 19.0 mph30.6 kmh 29.72 in1006.4 mb 0.00 in0.0 mm 0.00 in/hr0.0 mm/hr 0.00 in0.0 mm
03:18 PM 76.3°F24.6°C 67.8°F19.9°C 75% 19.8 mph SE31.9 kmh SE 20.6 mph33.2 kmh 29.72 in1006.4 mb 0.00 in0.0 mm 0.00 in/hr0.0 mm/hr 0.00 in0.0 mm
03:23 PM 76.1°F24.5°C 68.1°F20.1°C 76% 15.3 mph SSE24.6 kmh SSE 20.6 mph33.2 kmh 29.72 in1006.4 mb 0.00 in0.0 mm 0.00 in/hr0.0 mm/hr 0.00 in0.0 mm
03:28 PM 75.8°F24.3°C 67.7°F19.8°C 76% 17.4 mph SE28.0 kmh SE 21.5 mph34.6 kmh 29.71 in1006.1 mb 0.00 in0.0 mm 0.00 in/hr0.0 mm/hr 0.00 in0.0 mm
03:33 PM 76.5°F24.7°C 68.0°F20.0°C 75% 13.9 mph SE22.4 kmh SE 21.5 mph34.6 kmh 29.71 in1006.1 mb 0.00 in0.0 mm 0.00 in/hr0.0 mm/hr 0.00 in0.0 mm
03:38 PM 76.5°F24.7°C 68.0°F20.0°C 75% 19.5 mph SE31.4 kmh SE 19.7 mph31.7 kmh 29.71 in1006.1 mb 0.00 in0.0 mm 0.00 in/hr0.0 mm/hr 0.00 in0.0 mm
03:43 PM 76.1°F24.5°C 68.1°F20.1°C 76% 12.1 mph SE19.5 kmh SE 19.7 mph31.7 kmh 29.71 in1006.1 mb 0.00 in0.0 mm 0.00 in/hr0.0 mm/hr 0.00 in0.0 mm
03:48 PM 76.3°F24.6°C 68.2°F20.1°C 76% 15.4 mph SE24.8 kmh SE 17.7 mph28.5 kmh 29.71 in1006.1 mb 0.00 in0.0 mm 0.00 in/hr0.0 mm/hr 0.00 in0.0 mm
03:53 PM 76.7°F24.8°C 68.1°F20.1°C 75% 15.7 mph SE25.3 kmh SE 18.6 mph29.9 kmh 29.70 in1005.8 mb 0.00 in0.0 mm 0.00 in/hr0.0 mm/hr 0.00 in0.0 mm
03:58 PM 76.9°F24.9°C 67.6°F19.8°C 73% 18.3 mph SE29.5 kmh SE 26.2 mph42.2 kmh 29.70 in1005.8 mb 0.00 in0.0 mm 0.00 in/hr0.0 mm/hr 0.00 in0.0 mm
04:03 PM 76.7°F24.8°C 68.1°F20.1°C 75% 17.2 mph SE27.7 kmh SE 26.2 mph42.2 kmh 29.70 in1005.8 mb 0.00 in0.0 mm 0.00 in/hr0.0 mm/hr 0.00 in0.0 mm
04:08 PM 76.0°F24.4°C 67.5°F19.7°C 75% 20.0 mph SE32.2 kmh SE 23.3 mph37.5 kmh 29.69 in1005.4 mb 0.00 in0.0 mm 0.00 in/hr0.0 mm/hr 0.00 in0.0 mm
04:13 PM 75.6°F24.2°C 67.5°F19.7°C 76% 18.6 mph ESE29.9 kmh ESE 22.8 mph36.7 kmh 29.69 in1005.4 mb 0.00 in0.0 mm 0.00 in/hr0.0 mm/hr 0.00 in0.0 mm
04:18 PM 75.4°F24.1°C 68.1°F20.1°C 78% 19.4 mph SE31.2 kmh SE 22.8 mph36.7 kmh 29.69 in1005.4 mb 0.00 in0.0 mm 0.00 in/hr0.0 mm/hr 0.00 in0.0 mm
04:23 PM 75.1°F23.9°C 67.8°F19.9°C 78% 17.5 mph ESE28.2 kmh ESE 21.9 mph35.2 kmh 29.70 in1005.8 mb 0.00 in0.0 mm 0.00 in/hr0.0 mm/hr 0.00 in0.0 mm
04:28 PM 74.9°F23.8°C 67.6°F19.8°C 78% 14.2 mph SE22.9 kmh SE 22.4 mph36.0 kmh 29.69 in1005.4 mb 0.00 in0.0 mm 0.00 in/hr0.0 mm/hr 0.00 in0.0 mm
04:33 PM 74.9°F23.8°C 67.6°F19.8°C 78% 15.8 mph ESE25.4 kmh ESE 22.4 mph36.0 kmh 29.69 in1005.4 mb 0.00 in0.0 mm 0.00 in/hr0.0 mm/hr 0.00 in0.0 mm
04:38 PM 74.9°F23.8°C 67.6°F19.8°C 78% 16.5 mph SE26.6 kmh SE 21.3 mph34.3 kmh 29.68 in1005.1 mb 0.00 in0.0 mm 0.00 in/hr0.0 mm/hr 0.00 in0.0 mm
04:43 PM 74.9°F23.8°C 67.6°F19.8°C 78% 13.6 mph SE21.9 kmh SE 20.8 mph33.5 kmh 29.68 in1005.1 mb 0.00 in0.0 mm 0.00 in/hr0.0 mm/hr 0.00 in0.0 mm
04:48 PM 75.1°F23.9°C 67.8°F19.9°C 78% 15.5 mph SE24.9 kmh SE 19.5 mph31.4 kmh 29.69 in1005.4 mb 0.00 in0.0 mm 0.00 in/hr0.0 mm/hr 0.00 in0.0 mm
04:53 PM 75.1°F23.9°C 67.4°F19.7°C 77% 17.5 mph SE28.2 kmh SE 21.0 mph33.8 kmh 29.69 in1005.4 mb 0.00 in0.0 mm 0.00 in/hr0.0 mm/hr 0.00 in0.0 mm
04:58 PM 74.9°F23.8°C 67.6°F19.8°C 78% 13.3 mph S21.4 kmh S 21.0 mph33.8 kmh 29.69 in1005.4 mb 0.00 in0.0 mm 0.00 in/hr0.0 mm/hr 0.00 in0.0 mm
05:04 PM 74.9°F23.8°C 67.2°F19.6°C 77% 15.4 mph SE24.8 kmh SE 22.1 mph35.6 kmh 29.69 in1005.4 mb 0.00 in0.0 mm 0.00 in/hr0.0 mm/hr 0.00 in0.0 mm
05:08 PM 74.9°F23.8°C 67.2°F19.6°C 77% 20.5 mph SE33.0 kmh SE 22.1 mph35.6 kmh 29.69 in1005.4 mb 0.00 in0.0 mm 0.00 in/hr0.0 mm/hr 0.00 in0.0 mm
05:13 PM 74.9°F23.8°C 67.2°F19.6°C 77% 14.5 mph SE23.3 kmh SE 21.5 mph34.6 kmh 29.69 in1005.4 mb 0.00 in0.0 mm 0.00 in/hr0.0 mm/hr 0.00 in0.0 mm
05:18 PM 74.7°F23.7°C 67.1°F19.5°C 77% 21.5 mph SE34.6 kmh SE 21.9 mph35.2 kmh 29.69 in1005.4 mb 0.00 in0.0 mm 0.00 in/hr0.0 mm/hr 0.00 in0.0 mm
05:23 PM 74.5°F23.6°C 67.2°F19.6°C 78% 12.7 mph SE20.4 kmh SE 21.9 mph35.2 kmh 29.69 in1005.4 mb 0.00 in0.0 mm 0.00 in/hr0.0 mm/hr 0.00 in0.0 mm
05:28 PM 74.3°F23.5°C 67.1°F19.5°C 78% 13.6 mph SE21.9 kmh SE 18.3 mph29.5 kmh 29.69 in1005.4 mb 0.00 in0.0 mm 0.00 in/hr0.0 mm/hr 0.00 in0.0 mm
05:33 PM 74.3°F23.5°C 67.1°F19.5°C 78% 12.1 mph SE19.5 kmh SE 18.3 mph29.5 kmh 29.69 in1005.4 mb 0.00 in0.0 mm 0.00 in/hr0.0 mm/hr 0.00 in0.0 mm
05:38 PM 74.3°F23.5°C 67.1°F19.5°C 78% 16.0 mph SE25.7 kmh SE 19.0 mph30.6 kmh 29.69 in1005.4 mb 0.00 in0.0 mm 0.00 in/hr0.0 mm/hr 0.00 in0.0 mm
05:43 PM 74.3°F23.5°C 67.1°F19.5°C 78% 16.2 mph SE26.1 kmh SE 23.3 mph37.5 kmh 29.69 in1005.4 mb 0.00 in0.0 mm 0.00 in/hr0.0 mm/hr 0.00 in0.0 mm
05:49 PM 74.3°F23.5°C 67.1°F19.5°C 78% 15.2 mph SE24.5 kmh SE 23.3 mph37.5 kmh 29.69 in1005.4 mb 0.00 in0.0 mm 0.00 in/hr0.0 mm/hr 0.00 in0.0 mm
05:54 PM 74.3°F23.5°C 67.1°F19.5°C 78% 13.4 mph SSE21.6 kmh SSE 18.1 mph29.1 kmh 29.69 in1005.4 mb 0.00 in0.0 mm 0.00 in/hr0.0 mm/hr 0.00 in0.0 mm
05:59 PM 74.3°F23.5°C 67.1°F19.5°C 78% 11.8 mph SSE19.0 kmh SSE 17.9 mph28.8 kmh 29.69 in1005.4 mb 0.00 in0.0 mm 0.00 in/hr0.0 mm/hr 0.00 in0.0 mm
06:04 PM 74.2°F23.4°C 66.9°F19.4°C 78% 13.6 mph SE21.9 kmh SE 17.9 mph28.8 kmh 29.69 in1005.4 mb 0.00 in0.0 mm 0.00 in/hr0.0 mm/hr 0.00 in0.0 mm
06:09 PM 74.2°F23.4°C 66.9°F19.4°C 78% 13.4 mph SE21.6 kmh SE 17.9 mph28.8 kmh 29.69 in1005.4 mb 0.00 in0.0 mm 0.00 in/hr0.0 mm/hr 0.00 in0.0 mm
06:14 PM 74.0°F23.3°C 67.2°F19.6°C 79% 12.1 mph SE19.5 kmh SE 17.0 mph27.4 kmh 29.69 in1005.4 mb 0.00 in0.0 mm 0.00 in/hr0.0 mm/hr 0.00 in0.0 mm
06:19 PM 74.0°F23.3°C 67.2°F19.6°C 79% 11.8 mph E19.0 kmh E 16.3 mph26.2 kmh 29.70 in1005.8 mb 0.00 in0.0 mm 0.00 in/hr0.0 mm/hr 0.00 in0.0 mm
06:24 PM 74.0°F23.3°C 67.2°F19.6°C 79% 15.5 mph ESE24.9 kmh ESE 19.9 mph32.0 kmh 29.70 in1005.8 mb 0.00 in0.0 mm 0.00 in/hr0.0 mm/hr 0.00 in0.0 mm
06:29 PM 73.8°F23.2°C 67.0°F19.4°C 79% 12.6 mph ESE20.3 kmh ESE 20.6 mph33.2 kmh 29.70 in1005.8 mb 0.00 in0.0 mm 0.00 in/hr0.0 mm/hr 0.00 in0.0 mm
06:34 PM 73.8°F23.2°C 67.0°F19.4°C 79% 15.4 mph SE24.8 kmh SE 22.8 mph36.7 kmh 29.69 in1005.4 mb 0.00 in0.0 mm 0.00 in/hr0.0 mm/hr 0.00 in0.0 mm
06:39 PM 73.6°F23.1°C 66.8°F19.3°C 79% 12.4 mph SE20.0 kmh SE 22.8 mph36.7 kmh 29.69 in1005.4 mb 0.00 in0.0 mm 0.00 in/hr0.0 mm/hr 0.00 in0.0 mm
06:44 PM 73.4°F23.0°C 66.6°F19.2°C 79% 14.0 mph SE22.5 kmh SE 17.7 mph28.5 kmh 29.69 in1005.4 mb 0.00 in0.0 mm 0.00 in/hr0.0 mm/hr 0.00 in0.0 mm
06:49 PM 73.4°F23.0°C 66.6°F19.2°C 79% 21.6 mph SE34.8 kmh SE 21.7 mph34.9 kmh 29.69 in1005.4 mb 0.00 in0.0 mm 0.00 in/hr0.0 mm/hr 0.00 in0.0 mm
06:54 PM 73.3°F22.9°C 66.8°F19.3°C 80% 12.1 mph SE19.5 kmh SE 21.7 mph34.9 kmh 29.69 in1005.4 mb 0.00 in0.0 mm 0.00 in/hr0.0 mm/hr 0.00 in0.0 mm
06:59 PM 73.3°F22.9°C 66.8°F19.3°C 80% 11.4 mph SE18.3 kmh SE 20.4 mph32.8 kmh 29.69 in1005.4 mb 0.00 in0.0 mm 0.00 in/hr0.0 mm/hr 0.00 in0.0 mm
07:04 PM 73.3°F22.9°C 66.8°F19.3°C 80% 11.9 mph SE19.2 kmh SE 20.4 mph32.8 kmh 29.69 in1005.4 mb 0.00 in0.0 mm 0.00 in/hr0.0 mm/hr 0.00 in0.0 mm
07:09 PM 73.1°F22.8°C 67.0°F19.4°C 81% 12.1 mph E19.5 kmh E 16.1 mph25.9 kmh 29.69 in1005.4 mb 0.00 in0.0 mm 0.00 in/hr0.0 mm/hr 0.00 in0.0 mm
07:14 PM 72.9°F22.7°C 66.8°F19.3°C 81% 7.7 mph SE12.4 kmh SE 13.4 mph21.6 kmh 29.69 in1005.4 mb 0.00 in0.0 mm 0.00 in/hr0.0 mm/hr 0.00 in0.0 mm
07:19 PM 72.7°F22.6°C 66.6°F19.2°C 81% 10.1 mph ESE16.3 kmh ESE 13.4 mph21.6 kmh 29.69 in1005.4 mb 0.00 in0.0 mm 0.00 in/hr0.0 mm/hr 0.00 in0.0 mm
07:24 PM 72.7°F22.6°C 66.6°F19.2°C 81% 13.3 mph SE21.4 kmh SE 16.1 mph25.9 kmh 29.69 in1005.4 mb 0.00 in0.0 mm 0.00 in/hr0.0 mm/hr 0.00 in0.0 mm
07:29 PM 72.7°F22.6°C 67.0°F19.4°C 82% 12.8 mph ESE20.6 kmh ESE 16.1 mph25.9 kmh 29.70 in1005.8 mb 0.00 in0.0 mm 0.00 in/hr0.0 mm/hr 0.00 in0.0 mm
07:33 PM 72.7°F22.6°C 66.6°F19.2°C 81% 12.3 mph SE19.8 kmh SE 15.2 mph24.5 kmh 29.70 in1005.8 mb 0.00 in0.0 mm 0.00 in/hr0.0 mm/hr 0.00 in0.0 mm
07:39 PM 72.5°F22.5°C 66.4°F19.1°C 81% 15.6 mph SE25.1 kmh SE 17.2 mph27.7 kmh 29.69 in1005.4 mb 0.00 in0.0 mm 0.00 in/hr0.0 mm/hr 0.00 in0.0 mm
07:44 PM 72.5°F22.5°C 66.4°F19.1°C 81% 15.5 mph SE24.9 kmh SE 17.2 mph27.7 kmh 29.69 in1005.4 mb 0.00 in0.0 mm 0.00 in/hr0.0 mm/hr 0.00 in0.0 mm
07:49 PM 72.4°F22.4°C 66.3°F19.1°C 81% 14.7 mph SE23.7 kmh SE 20.6 mph33.2 kmh 29.69 in1005.4 mb 0.00 in0.0 mm 0.00 in/hr0.0 mm/hr 0.00 in0.0 mm
07:54 PM 72.4°F22.4°C 66.3°F19.1°C 81% 15.0 mph SE24.1 kmh SE 20.6 mph33.2 kmh 29.69 in1005.4 mb 0.00 in0.0 mm 0.00 in/hr0.0 mm/hr 0.00 in0.0 mm
07:59 PM 72.4°F22.4°C 66.3°F19.1°C 81% 11.5 mph SE18.5 kmh SE 19.5 mph31.4 kmh 29.69 in1005.4 mb 0.00 in0.0 mm 0.00 in/hr0.0 mm/hr 0.00 in0.0 mm
08:04 PM 72.4°F22.4°C 66.3°F19.1°C 81% 10.3 mph SE16.6 kmh SE 19.5 mph31.4 kmh 29.69 in1005.4 mb 0.00 in0.0 mm 0.00 in/hr0.0 mm/hr 0.00 in0.0 mm
08:09 PM 72.4°F22.4°C 66.3°F19.1°C 81% 12.3 mph SE19.8 kmh SE 16.3 mph26.2 kmh 29.69 in1005.4 mb 0.00 in0.0 mm 0.00 in/hr0.0 mm/hr 0.00 in0.0 mm
08:14 PM 72.2°F22.3°C 66.1°F18.9°C 81% 18.3 mph SE29.5 kmh SE 20.8 mph33.5 kmh 29.68 in1005.1 mb 0.00 in0.0 mm 0.00 in/hr0.0 mm/hr 0.00 in0.0 mm
08:19 PM 72.2°F22.3°C 66.1°F18.9°C 81% 16.5 mph SE26.6 kmh SE 20.8 mph33.5 kmh 29.69 in1005.4 mb 0.00 in0.0 mm 0.00 in/hr0.0 mm/hr 0.00 in0.0 mm
08:24 PM 72.2°F22.3°C 66.1°F18.9°C 81% 16.8 mph SE27.0 kmh SE 20.8 mph33.5 kmh 29.69 in1005.4 mb 0.00 in0.0 mm 0.00 in/hr0.0 mm/hr 0.00 in0.0 mm
08:29 PM 72.2°F22.3°C 66.1°F18.9°C 81% 13.6 mph SE21.9 kmh SE 20.8 mph33.5 kmh 29.69 in1005.4 mb 0.00 in0.0 mm 0.00 in/hr0.0 mm/hr 0.00 in0.0 mm
08:34 PM 72.2°F22.3°C 66.1°F18.9°C 81% 16.2 mph SE26.1 kmh SE 18.3 mph29.5 kmh 29.69 in1005.4 mb 0.00 in0.0 mm 0.00 in/hr0.0 mm/hr 0.00 in0.0 mm
08:39 PM 72.2°F22.3°C 66.1°F18.9°C 81% 16.9 mph SE27.2 kmh SE 21.3 mph34.3 kmh 29.69 in1005.4 mb 0.00 in0.0 mm 0.00 in/hr0.0 mm/hr 0.00 in0.0 mm
08:44 PM 72.2°F22.3°C 66.1°F18.9°C 81% 14.9 mph SE24.0 kmh SE 21.3 mph34.3 kmh 29.69 in1005.4 mb 0.00 in0.0 mm 0.00 in/hr0.0 mm/hr 0.00 in0.0 mm
08:49 PM 72.2°F22.3°C 66.1°F18.9°C 81% 14.3 mph SE23.0 kmh SE 22.4 mph36.0 kmh 29.69 in1005.4 mb 0.00 in0.0 mm 0.00 in/hr0.0 mm/hr 0.00 in0.0 mm
08:54 PM 72.2°F22.3°C 66.1°F18.9°C 81% 14.2 mph ESE22.9 kmh ESE 22.4 mph36.0 kmh 29.70 in1005.8 mb 0.00 in0.0 mm 0.00 in/hr0.0 mm/hr 0.00 in0.0 mm
09:00 PM 72.4°F22.4°C 66.3°F19.1°C 81% 14.9 mph SE24.0 kmh SE 19.2 mph30.9 kmh 29.70 in1005.8 mb 0.00 in0.0 mm 0.00 in/hr0.0 mm/hr 0.00 in0.0 mm
09:05 PM 72.2°F22.3°C 66.1°F18.9°C 81% 18.3 mph SE29.5 kmh SE 21.0 mph33.8 kmh 29.70 in1005.8 mb 0.00 in0.0 mm 0.00 in/hr0.0 mm/hr 0.00 in0.0 mm
09:09 PM 72.2°F22.3°C 66.1°F18.9°C 81% 16.5 mph ESE26.6 kmh ESE 21.9 mph35.2 kmh 29.70 in1005.8 mb 0.00 in0.0 mm 0.00 in/hr0.0 mm/hr 0.00 in0.0 mm
09:14 PM 72.4°F22.4°C 66.3°F19.1°C 81% 12.9 mph SE20.8 kmh SE 21.9 mph35.2 kmh 29.70 in1005.8 mb 0.00 in0.0 mm 0.00 in/hr0.0 mm/hr 0.00 in0.0 mm
09:19 PM 72.4°F22.4°C 66.3°F19.1°C 81% 16.8 mph SE27.0 kmh SE 18.1 mph29.1 kmh 29.70 in1005.8 mb 0.00 in0.0 mm 0.00 in/hr0.0 mm/hr 0.00 in0.0 mm
09:24 PM 72.4°F22.4°C 65.9°F18.8°C 80% 15.6 mph SSE25.1 kmh SSE 20.1 mph32.3 kmh 29.70 in1005.8 mb 0.00 in0.0 mm 0.00 in/hr0.0 mm/hr 0.00 in0.0 mm
09:29 PM 72.4°F22.4°C 66.3°F19.1°C 81% 19.7 mph SE31.7 kmh SE 20.8 mph33.5 kmh 29.71 in1006.1 mb 0.00 in0.0 mm 0.00 in/hr0.0 mm/hr 0.00 in0.0 mm
09:34 PM 72.4°F22.4°C 65.9°F18.8°C 80% 17.5 mph SE28.2 kmh SE 22.4 mph36.0 kmh 29.71 in1006.1 mb 0.00 in0.0 mm 0.00 in/hr0.0 mm/hr 0.00 in0.0 mm
09:39 PM 72.5°F22.5°C 66.1°F18.9°C 80% 9.7 mph SE15.6 kmh SE 22.4 mph36.0 kmh 29.71 in1006.1 mb 0.00 in0.0 mm 0.00 in/hr0.0 mm/hr 0.00 in0.0 mm
09:44 PM 72.4°F22.4°C 65.9°F18.8°C 80% 8.9 mph SE14.3 kmh SE 15.7 mph25.3 kmh 29.72 in1006.4 mb 0.00 in0.0 mm 0.00 in/hr0.0 mm/hr 0.00 in0.0 mm
09:49 PM 72.5°F22.5°C 66.1°F18.9°C 80% 13.1 mph ESE21.1 kmh ESE 15.7 mph25.3 kmh 29.72 in1006.4 mb 0.00 in0.0 mm 0.00 in/hr0.0 mm/hr 0.00 in0.0 mm
09:54 PM 72.5°F22.5°C 66.1°F18.9°C 80% 9.0 mph SSE14.5 kmh SSE 16.3 mph26.2 kmh 29.72 in1006.4 mb 0.00 in0.0 mm 0.00 in/hr0.0 mm/hr 0.00 in0.0 mm
10:00 PM 72.5°F22.5°C 66.1°F18.9°C 80% 10.0 mph SE16.1 kmh SE 16.3 mph26.2 kmh 29.72 in1006.4 mb 0.00 in0.0 mm 0.00 in/hr0.0 mm/hr 0.00 in0.0 mm
10:05 PM 72.5°F22.5°C 66.4°F19.1°C 81% 15.1 mph SSE24.3 kmh SSE 16.8 mph27.0 kmh 29.72 in1006.4 mb 0.00 in0.0 mm 0.00 in/hr0.0 mm/hr 0.00 in0.0 mm
10:10 PM 72.5°F22.5°C 66.4°F19.1°C 81% 12.4 mph SE20.0 kmh SE 16.8 mph27.0 kmh 29.72 in1006.4 mb 0.00 in0.0 mm 0.00 in/hr0.0 mm/hr 0.00 in0.0 mm
10:15 PM 72.5°F22.5°C 66.4°F19.1°C 81% 12.4 mph SE20.0 kmh SE 17.4 mph28.0 kmh 29.72 in1006.4 mb 0.00 in0.0 mm 0.00 in/hr0.0 mm/hr 0.00 in0.0 mm
10:20 PM 72.4°F22.4°C 66.3°F19.1°C 81% 11.5 mph ESE18.5 kmh ESE 20.6 mph33.2 kmh 29.72 in1006.4 mb 0.00 in0.0 mm 0.00 in/hr0.0 mm/hr 0.00 in0.0 mm
10:24 PM 72.4°F22.4°C 66.3°F19.1°C 81% 16.5 mph SE26.6 kmh SE 20.6 mph33.2 kmh 29.71 in1006.1 mb 0.00 in0.0 mm 0.00 in/hr0.0 mm/hr 0.00 in0.0 mm
10:29 PM 72.4°F22.4°C 66.3°F19.1°C 81% 13.5 mph SE21.7 kmh SE 20.1 mph32.3 kmh 29.71 in1006.1 mb 0.00 in0.0 mm 0.00 in/hr0.0 mm/hr 0.00 in0.0 mm
10:34 PM 72.4°F22.4°C 66.3°F19.1°C 81% 15.1 mph SE24.3 kmh SE 21.3 mph34.3 kmh 29.71 in1006.1 mb 0.00 in0.0 mm 0.00 in/hr0.0 mm/hr 0.00 in0.0 mm
10:39 PM 72.4°F22.4°C 66.3°F19.1°C 81% 11.5 mph SE18.5 kmh SE 21.3 mph34.3 kmh 29.71 in1006.1 mb 0.00 in0.0 mm 0.00 in/hr0.0 mm/hr 0.00 in0.0 mm
10:44 PM 72.4°F22.4°C 66.6°F19.2°C 82% 9.5 mph SE15.3 kmh SE 21.3 mph34.3 kmh 29.71 in1006.1 mb 0.00 in0.0 mm 0.00 in/hr0.0 mm/hr 0.00 in0.0 mm
10:49 PM 72.4°F22.4°C 66.6°F19.2°C 82% 17.2 mph SE27.7 kmh SE 21.7 mph34.9 kmh 29.71 in1006.1 mb 0.00 in0.0 mm 0.00 in/hr0.0 mm/hr 0.00 in0.0 mm
10:54 PM 72.4°F22.4°C 66.3°F19.1°C 81% 11.3 mph SE18.2 kmh SE 21.7 mph34.9 kmh 29.71 in1006.1 mb 0.00 in0.0 mm 0.00 in/hr0.0 mm/hr 0.00 in0.0 mm
11:00 PM 72.5°F22.5°C 66.4°F19.1°C 81% 15.2 mph SE24.5 kmh SE 17.9 mph28.8 kmh 29.71 in1006.1 mb 0.00 in0.0 mm 0.00 in/hr0.0 mm/hr 0.00 in0.0 mm
11:05 PM 72.5°F22.5°C 66.8°F19.3°C 82% 10.5 mph SE16.9 kmh SE 17.9 mph28.8 kmh 29.71 in1006.1 mb 0.00 in0.0 mm 0.00 in/hr0.0 mm/hr 0.00 in0.0 mm
11:10 PM 72.5°F22.5°C 66.8°F19.3°C 82% 8.4 mph E13.5 kmh E 21.5 mph34.6 kmh 29.71 in1006.1 mb 0.00 in0.0 mm 0.00 in/hr0.0 mm/hr 0.00 in0.0 mm
11:15 PM 72.5°F22.5°C 66.8°F19.3°C 82% 10.4 mph ESE16.7 kmh ESE 21.5 mph34.6 kmh 29.71 in1006.1 mb 0.00 in0.0 mm 0.00 in/hr0.0 mm/hr 0.00 in0.0 mm
11:20 PM 72.5°F22.5°C 66.8°F19.3°C 82% 15.2 mph SE24.5 kmh SE 15.4 mph24.8 kmh 29.71 in1006.1 mb 0.00 in0.0 mm 0.00 in/hr0.0 mm/hr 0.00 in0.0 mm
11:24 PM 72.7°F22.6°C 67.0°F19.4°C 82% 11.8 mph SE19.0 kmh SE 15.4 mph24.8 kmh 29.71 in1006.1 mb 0.00 in0.0 mm 0.00 in/hr0.0 mm/hr 0.00 in0.0 mm
11:29 PM 72.7°F22.6°C 67.2°F19.6°C 83% 9.9 mph SE15.9 kmh SE 15.7 mph25.3 kmh 29.71 in1006.1 mb 0.00 in0.0 mm 0.00 in/hr0.0 mm/hr 0.00 in0.0 mm
11:34 PM 72.7°F22.6°C 67.0°F19.4°C 82% 5.3 mph SE8.5 kmh SE 15.7 mph25.3 kmh 29.71 in1006.1 mb 0.00 in0.0 mm 0.00 in/hr0.0 mm/hr 0.00 in0.0 mm
11:39 PM 72.7°F22.6°C 67.0°F19.4°C 82% 11.1 mph ESE17.9 kmh ESE 15.0 mph24.1 kmh 29.71 in1006.1 mb 0.00 in0.0 mm 0.00 in/hr0.0 mm/hr 0.00 in0.0 mm
11:44 PM 72.7°F22.6°C 67.2°F19.6°C 83% 10.9 mph SE17.5 kmh SE 15.0 mph24.1 kmh 29.71 in1006.1 mb 0.00 in0.0 mm 0.00 in/hr0.0 mm/hr 0.00 in0.0 mm
11:49 PM 72.9°F22.7°C 67.4°F19.7°C 83% 8.5 mph SE13.7 kmh SE 18.8 mph30.3 kmh 29.71 in1006.1 mb 0.00 in0.0 mm 0.00 in/hr0.0 mm/hr 0.00 in0.0 mm
11:54 PM 72.9°F22.7°C 67.4°F19.7°C 83% 7.6 mph SE12.2 kmh SE 18.8 mph30.3 kmh 29.71 in1006.1 mb 0.00 in0.0 mm 0.00 in/hr0.0 mm/hr 0.00 in0.0 mm